sensor_id;sensor_type;location;lat;lon;timestamp;P1;durP1;ratioP1;P2;durP2;ratioP2
26806;SDS011;14380;49.910;6.792;2023-02-05T00:00:13;25.70;;;7.70;;
26806;SDS011;14380;49.910;6.792;2023-02-05T00:02:41;26.50;;;7.55;;
26806;SDS011;14380;49.910;6.792;2023-02-05T00:05:07;27.70;;;7.28;;
26806;SDS011;14380;49.910;6.792;2023-02-05T00:07:34;29.85;;;8.15;;
26806;SDS011;14380;49.910;6.792;2023-02-05T00:10:01;24.13;;;6.95;;
26806;SDS011;14380;49.910;6.792;2023-02-05T00:12:29;23.52;;;6.78;;
26806;SDS011;14380;49.910;6.792;2023-02-05T00:14:55;20.38;;;7.20;;
26806;SDS011;14380;49.910;6.792;2023-02-05T00:17:22;21.35;;;7.72;;
26806;SDS011;14380;49.910;6.792;2023-02-05T00:19:48;23.42;;;6.75;;
26806;SDS011;14380;49.910;6.792;2023-02-05T00:22:15;24.48;;;8.43;;
26806;SDS011;14380;49.910;6.792;2023-02-05T00:24:42;18.40;;;7.80;;
26806;SDS011;14380;49.910;6.792;2023-02-05T00:27:08;28.67;;;7.63;;
26806;SDS011;14380;49.910;6.792;2023-02-05T00:29:36;19.98;;;7.07;;
26806;SDS011;14380;49.910;6.792;2023-02-05T00:32:03;24.33;;;7.30;;
26806;SDS011;14380;49.910;6.792;2023-02-05T00:34:29;19.63;;;6.68;;
26806;SDS011;14380;49.910;6.792;2023-02-05T00:36:56;22.05;;;7.38;;
26806;SDS011;14380;49.910;6.792;2023-02-05T00:39:22;22.85;;;7.80;;
26806;SDS011;14380;49.910;6.792;2023-02-05T00:41:49;23.10;;;6.55;;
26806;SDS011;14380;49.910;6.792;2023-02-05T00:44:16;21.52;;;6.35;;
26806;SDS011;14380;49.910;6.792;2023-02-05T00:46:44;20.45;;;7.05;;
26806;SDS011;14380;49.910;6.792;2023-02-05T00:49:11;24.67;;;6.85;;
26806;SDS011;14380;49.910;6.792;2023-02-05T00:51:37;29.67;;;8.65;;
26806;SDS011;14380;49.910;6.792;2023-02-05T00:54:04;36.35;;;7.53;;
26806;SDS011;14380;49.910;6.792;2023-02-05T00:56:30;31.65;;;8.73;;
26806;SDS011;14380;49.910;6.792;2023-02-05T00:58:57;23.02;;;7.97;;
26806;SDS011;14380;49.910;6.792;2023-02-05T01:01:24;22.48;;;7.38;;
26806;SDS011;14380;49.910;6.792;2023-02-05T01:03:52;26.02;;;7.25;;
26806;SDS011;14380;49.910;6.792;2023-02-05T01:06:18;24.35;;;7.65;;
26806;SDS011;14380;49.910;6.792;2023-02-05T01:08:45;28.15;;;7.95;;
26806;SDS011;14380;49.910;6.792;2023-02-05T01:11:11;25.08;;;7.93;;
26806;SDS011;14380;49.910;6.792;2023-02-05T01:13:39;20.08;;;6.65;;
26806;SDS011;14380;49.910;6.792;2023-02-05T01:16:05;19.75;;;7.28;;
26806;SDS011;14380;49.910;6.792;2023-02-05T01:18:34;24.65;;;6.43;;
26806;SDS011;14380;49.910;6.792;2023-02-05T01:21:02;24.13;;;7.07;;
26806;SDS011;14380;49.910;6.792;2023-02-05T01:23:29;19.50;;;6.80;;
26806;SDS011;14380;49.910;6.792;2023-02-05T01:25:55;25.35;;;7.35;;
26806;SDS011;14380;49.910;6.792;2023-02-05T01:28:22;19.55;;;7.72;;
26806;SDS011;14380;49.910;6.792;2023-02-05T01:30:48;21.58;;;6.75;;
26806;SDS011;14380;49.910;6.792;2023-02-05T01:33:16;20.80;;;6.90;;
26806;SDS011;14380;49.910;6.792;2023-02-05T01:35:42;19.58;;;7.25;;
26806;SDS011;14380;49.910;6.792;2023-02-05T01:38:11;17.50;;;6.90;;
26806;SDS011;14380;49.910;6.792;2023-02-05T01:40:37;18.45;;;6.10;;
26806;SDS011;14380;49.910;6.792;2023-02-05T01:43:05;20.58;;;6.40;;
26806;SDS011;14380;49.910;6.792;2023-02-05T01:45:39;20.20;;;7.10;;
26806;SDS011;14380;49.910;6.792;2023-02-05T01:48:16;27.02;;;7.45;;
26806;SDS011;14380;49.910;6.792;2023-02-05T01:50:46;23.42;;;6.88;;
26806;SDS011;14380;49.910;6.792;2023-02-05T01:53:18;19.77;;;6.88;;
26806;SDS011;14380;49.910;6.792;2023-02-05T01:55:54;19.58;;;6.57;;
26806;SDS011;14380;49.910;6.792;2023-02-05T02:00:51;21.73;;;6.65;;
26806;SDS011;14380;49.910;6.792;2023-02-05T02:03:19;31.45;;;8.00;;
26806;SDS011;14380;49.910;6.792;2023-02-05T02:05:49;19.25;;;7.00;;
26806;SDS011;14380;49.910;6.792;2023-02-05T02:08:17;22.80;;;6.85;;
26806;SDS011;14380;49.910;6.792;2023-02-05T02:10:44;28.00;;;7.65;;
26806;SDS011;14380;49.910;6.792;2023-02-05T02:13:13;27.50;;;7.82;;
26806;SDS011;14380;49.910;6.792;2023-02-05T02:15:40;29.65;;;7.75;;
26806;SDS011;14380;49.910;6.792;2023-02-05T02:18:07;24.88;;;6.82;;
26806;SDS011;14380;49.910;6.792;2023-02-05T02:20:59;26.23;;;7.50;;
26806;SDS011;14380;49.910;6.792;2023-02-05T02:23:55;24.50;;;6.80;;
26806;SDS011;14380;49.910;6.792;2023-02-05T02:26:42;21.85;;;7.53;;
26806;SDS011;14380;49.910;6.792;2023-02-05T02:29:25;28.55;;;9.15;;
26806;SDS011;14380;49.910;6.792;2023-02-05T02:32:02;19.42;;;7.28;;
26806;SDS011;14380;49.910;6.792;2023-02-05T02:34:36;19.98;;;8.15;;
26806;SDS011;14380;49.910;6.792;2023-02-05T02:37:07;110.57;;;9.15;;
26806;SDS011;14380;49.910;6.792;2023-02-05T02:39:37;14.43;;;6.15;;
26806;SDS011;14380;49.910;6.792;2023-02-05T02:42:07;23.23;;;7.70;;
26806;SDS011;14380;49.910;6.792;2023-02-05T02:44:40;22.15;;;7.55;;
26806;SDS011;14380;49.910;6.792;2023-02-05T02:47:11;14.40;;;6.22;;
26806;SDS011;14380;49.910;6.792;2023-02-05T02:49:41;22.85;;;7.13;;
26806;SDS011;14380;49.910;6.792;2023-02-05T02:52:12;18.20;;;6.93;;
26806;SDS011;14380;49.910;6.792;2023-02-05T02:54:44;23.38;;;7.28;;
26806;SDS011;14380;49.910;6.792;2023-02-05T02:57:13;16.60;;;6.32;;
26806;SDS011;14380;49.910;6.792;2023-02-05T02:59:44;18.80;;;7.13;;
26806;SDS011;14380;49.910;6.792;2023-02-05T03:02:13;17.92;;;7.03;;
26806;SDS011;14380;49.910;6.792;2023-02-05T03:04:41;19.23;;;7.80;;
26806;SDS011;14380;49.910;6.792;2023-02-05T03:07:12;23.08;;;7.85;;
26806;SDS011;14380;49.910;6.792;2023-02-05T03:09:45;41.63;;;7.60;;
26806;SDS011;14380;49.910;6.792;2023-02-05T03:12:16;19.88;;;7.45;;
26806;SDS011;14380;49.910;6.792;2023-02-05T03:14:46;18.65;;;6.57;;
26806;SDS011;14380;49.910;6.792;2023-02-05T03:17:13;19.20;;;6.72;;
26806;SDS011;14380;49.910;6.792;2023-02-05T03:19:43;22.40;;;7.88;;
26806;SDS011;14380;49.910;6.792;2023-02-05T03:22:10;22.20;;;8.05;;
26806;SDS011;14380;49.910;6.792;2023-02-05T03:24:37;30.52;;;8.07;;
26806;SDS011;14380;49.910;6.792;2023-02-05T03:27:04;27.13;;;7.93;;
26806;SDS011;14380;49.910;6.792;2023-02-05T03:29:32;29.65;;;8.63;;
26806;SDS011;14380;49.910;6.792;2023-02-05T03:32:07;27.95;;;10.18;;
26806;SDS011;14380;49.910;6.792;2023-02-05T03:34:45;25.67;;;8.30;;
26806;SDS011;14380;49.910;6.792;2023-02-05T03:37:27;26.33;;;9.20;;
26806;SDS011;14380;49.910;6.792;2023-02-05T03:40:04;26.70;;;9.13;;
26806;SDS011;14380;49.910;6.792;2023-02-05T03:42:42;23.38;;;8.75;;
26806;SDS011;14380;49.910;6.792;2023-02-05T03:45:23;22.70;;;11.25;;
26806;SDS011;14380;49.910;6.792;2023-02-05T03:48:14;35.80;;;12.77;;
26806;SDS011;14380;49.910;6.792;2023-02-05T03:50:48;39.10;;;13.32;;
26806;SDS011;14380;49.910;6.792;2023-02-05T03:53:21;25.05;;;11.77;;
26806;SDS011;14380;49.910;6.792;2023-02-05T03:55:58;28.98;;;12.63;;
26806;SDS011;14380;49.910;6.792;2023-02-05T03:58:29;34.00;;;13.10;;
26806;SDS011;14380;49.910;6.792;2023-02-05T04:00:59;27.58;;;11.68;;
26806;SDS011;14380;49.910;6.792;2023-02-05T04:03:27;30.38;;;12.43;;
26806;SDS011;14380;49.910;6.792;2023-02-05T04:05:54;30.83;;;11.75;;
26806;SDS011;14380;49.910;6.792;2023-02-05T04:08:21;28.63;;;12.23;;
26806;SDS011;14380;49.910;6.792;2023-02-05T04:10:47;33.15;;;13.27;;
26806;SDS011;14380;49.910;6.792;2023-02-05T04:13:14;27.50;;;10.35;;
26806;SDS011;14380;49.910;6.792;2023-02-05T04:15:41;25.90;;;10.00;;
26806;SDS011;14380;49.910;6.792;2023-02-05T04:18:08;25.42;;;10.80;;
26806;SDS011;14380;49.910;6.792;2023-02-05T04:20:36;29.02;;;11.63;;
26806;SDS011;14380;49.910;6.792;2023-02-05T04:23:03;25.80;;;10.88;;
26806;SDS011;14380;49.910;6.792;2023-02-05T04:25:29;28.50;;;12.73;;
26806;SDS011;14380;49.910;6.792;2023-02-05T04:27:56;29.20;;;12.32;;
26806;SDS011;14380;49.910;6.792;2023-02-05T04:30:22;37.95;;;13.75;;
26806;SDS011;14380;49.910;6.792;2023-02-05T04:32:49;41.78;;;12.43;;
26806;SDS011;14380;49.910;6.792;2023-02-05T04:35:16;35.78;;;13.80;;
26806;SDS011;14380;49.910;6.792;2023-02-05T04:37:44;31.60;;;13.23;;
26806;SDS011;14380;49.910;6.792;2023-02-05T04:40:10;32.78;;;12.68;;
26806;SDS011;14380;49.910;6.792;2023-02-05T04:42:37;32.90;;;12.90;;
26806;SDS011;14380;49.910;6.792;2023-02-05T04:45:04;30.73;;;12.48;;
26806;SDS011;14380;49.910;6.792;2023-02-05T04:47:31;31.00;;;12.13;;
26806;SDS011;14380;49.910;6.792;2023-02-05T04:49:58;31.75;;;12.68;;
26806;SDS011;14380;49.910;6.792;2023-02-05T04:52:25;35.85;;;14.48;;
26806;SDS011;14380;49.910;6.792;2023-02-05T04:54:53;24.70;;;11.90;;
26806;SDS011;14380;49.910;6.792;2023-02-05T04:57:19;30.67;;;12.90;;
26806;SDS011;14380;49.910;6.792;2023-02-05T04:59:46;30.08;;;12.00;;
26806;SDS011;14380;49.910;6.792;2023-02-05T05:02:12;35.00;;;13.15;;
26806;SDS011;14380;49.910;6.792;2023-02-05T05:04:39;36.88;;;13.63;;
26806;SDS011;14380;49.910;6.792;2023-02-05T05:07:08;35.50;;;14.50;;
26806;SDS011;14380;49.910;6.792;2023-02-05T05:09:39;30.00;;;13.70;;
26806;SDS011;14380;49.910;6.792;2023-02-05T05:12:16;29.00;;;13.63;;
26806;SDS011;14380;49.910;6.792;2023-02-05T05:14:47;33.20;;;14.85;;
26806;SDS011;14380;49.910;6.792;2023-02-05T05:17:18;32.40;;;14.15;;
26806;SDS011;14380;49.910;6.792;2023-02-05T05:19:48;28.10;;;13.60;;
26806;SDS011;14380;49.910;6.792;2023-02-05T05:22:15;35.40;;;12.93;;
26806;SDS011;14380;49.910;6.792;2023-02-05T05:24:42;31.17;;;12.38;;
26806;SDS011;14380;49.910;6.792;2023-02-05T05:27:08;30.17;;;13.27;;
26806;SDS011;14380;49.910;6.792;2023-02-05T05:29:36;26.80;;;13.20;;
26806;SDS011;14380;49.910;6.792;2023-02-05T05:32:03;27.17;;;14.10;;
26806;SDS011;14380;49.910;6.792;2023-02-05T05:34:30;30.35;;;13.57;;
26806;SDS011;14380;49.910;6.792;2023-02-05T05:36:57;28.75;;;14.45;;
26806;SDS011;14380;49.910;6.792;2023-02-05T05:39:23;31.33;;;14.68;;
26806;SDS011;14380;49.910;6.792;2023-02-05T05:42:08;28.58;;;12.77;;
26806;SDS011;14380;49.910;6.792;2023-02-05T05:44:55;34.13;;;13.43;;
26806;SDS011;14380;49.910;6.792;2023-02-05T05:47:21;29.45;;;14.52;;
26806;SDS011;14380;49.910;6.792;2023-02-05T05:49:48;31.92;;;13.52;;
26806;SDS011;14380;49.910;6.792;2023-02-05T05:52:15;32.75;;;16.35;;
26806;SDS011;14380;49.910;6.792;2023-02-05T05:54:41;36.17;;;15.55;;
26806;SDS011;14380;49.910;6.792;2023-02-05T05:57:08;34.15;;;15.95;;
26806;SDS011;14380;49.910;6.792;2023-02-05T05:59:35;40.63;;;17.38;;
26806;SDS011;14380;49.910;6.792;2023-02-05T06:02:03;33.50;;;15.10;;
26806;SDS011;14380;49.910;6.792;2023-02-05T06:04:30;31.13;;;13.82;;
26806;SDS011;14380;49.910;6.792;2023-02-05T06:06:56;36.78;;;15.82;;
26806;SDS011;14380;49.910;6.792;2023-02-05T06:09:24;26.33;;;15.30;;
26806;SDS011;14380;49.910;6.792;2023-02-05T06:11:50;29.45;;;14.50;;
26806;SDS011;14380;49.910;6.792;2023-02-05T06:14:17;34.75;;;16.27;;
26806;SDS011;14380;49.910;6.792;2023-02-05T06:16:43;29.65;;;15.90;;
26806;SDS011;14380;49.910;6.792;2023-02-05T06:19:11;28.65;;;16.63;;
26806;SDS011;14380;49.910;6.792;2023-02-05T06:21:38;38.50;;;17.77;;
26806;SDS011;14380;49.910;6.792;2023-02-05T06:24:05;33.75;;;17.63;;
26806;SDS011;14380;49.910;6.792;2023-02-05T06:26:31;30.63;;;18.02;;
26806;SDS011;14380;49.910;6.792;2023-02-05T06:28:58;45.38;;;22.17;;
26806;SDS011;14380;49.910;6.792;2023-02-05T06:31:27;46.88;;;22.75;;
26806;SDS011;14380;49.910;6.792;2023-02-05T06:33:54;35.97;;;16.77;;
26806;SDS011;14380;49.910;6.792;2023-02-05T06:36:22;40.83;;;17.88;;
26806;SDS011;14380;49.910;6.792;2023-02-05T06:38:49;32.80;;;15.48;;
26806;SDS011;14380;49.910;6.792;2023-02-05T06:41:15;36.80;;;19.45;;
26806;SDS011;14380;49.910;6.792;2023-02-05T06:43:42;39.78;;;20.40;;
26806;SDS011;14380;49.910;6.792;2023-02-05T06:46:09;38.55;;;20.20;;
26806;SDS011;14380;49.910;6.792;2023-02-05T06:48:35;36.60;;;20.05;;
26806;SDS011;14380;49.910;6.792;2023-02-05T06:51:02;40.63;;;22.10;;
26806;SDS011;14380;49.910;6.792;2023-02-05T06:53:30;49.35;;;23.80;;
26806;SDS011;14380;49.910;6.792;2023-02-05T06:55:57;49.60;;;26.45;;
26806;SDS011;14380;49.910;6.792;2023-02-05T06:58:24;49.88;;;24.83;;
26806;SDS011;14380;49.910;6.792;2023-02-05T07:00:51;40.78;;;23.35;;
26806;SDS011;14380;49.910;6.792;2023-02-05T07:03:17;40.03;;;23.02;;
26806;SDS011;14380;49.910;6.792;2023-02-05T07:05:44;40.90;;;22.83;;
26806;SDS011;14380;49.910;6.792;2023-02-05T07:08:10;39.35;;;22.67;;
26806;SDS011;14380;49.910;6.792;2023-02-05T07:10:38;38.75;;;21.83;;
26806;SDS011;14380;49.910;6.792;2023-02-05T07:13:05;45.00;;;23.77;;
26806;SDS011;14380;49.910;6.792;2023-02-05T07:15:33;44.25;;;25.33;;
26806;SDS011;14380;49.910;6.792;2023-02-05T07:18:00;48.05;;;24.95;;
26806;SDS011;14380;49.910;6.792;2023-02-05T07:20:27;43.00;;;21.38;;
26806;SDS011;14380;49.910;6.792;2023-02-05T07:22:53;32.83;;;18.77;;
26806;SDS011;14380;49.910;6.792;2023-02-05T07:25:20;31.02;;;18.58;;
26806;SDS011;14380;49.910;6.792;2023-02-05T07:27:48;30.35;;;18.95;;
26806;SDS011;14380;49.910;6.792;2023-02-05T07:30:15;32.13;;;18.65;;
26806;SDS011;14380;49.910;6.792;2023-02-05T07:32:42;30.80;;;18.77;;
26806;SDS011;14380;49.910;6.792;2023-02-05T07:35:08;30.88;;;17.50;;
26806;SDS011;14380;49.910;6.792;2023-02-05T07:37:35;30.60;;;17.05;;
26806;SDS011;14380;49.910;6.792;2023-02-05T07:40:03;33.03;;;18.40;;
26806;SDS011;14380;49.910;6.792;2023-02-05T07:42:30;29.08;;;16.52;;
26806;SDS011;14380;49.910;6.792;2023-02-05T07:44:58;27.73;;;16.75;;
26806;SDS011;14380;49.910;6.792;2023-02-05T07:47:25;30.13;;;17.02;;
26806;SDS011;14380;49.910;6.792;2023-02-05T07:49:52;30.13;;;18.40;;
26806;SDS011;14380;49.910;6.792;2023-02-05T07:52:18;23.70;;;15.75;;
26806;SDS011;14380;49.910;6.792;2023-02-05T07:54:45;24.30;;;15.77;;
26806;SDS011;14380;49.910;6.792;2023-02-05T07:57:12;26.88;;;15.63;;
26806;SDS011;14380;49.910;6.792;2023-02-05T07:59:38;22.60;;;15.65;;
26806;SDS011;14380;49.910;6.792;2023-02-05T08:02:07;21.75;;;14.10;;
26806;SDS011;14380;49.910;6.792;2023-02-05T08:04:34;23.33;;;14.85;;
26806;SDS011;14380;49.910;6.792;2023-02-05T08:07:01;23.13;;;14.93;;
26806;SDS011;14380;49.910;6.792;2023-02-05T08:09:27;22.80;;;15.25;;
26806;SDS011;14380;49.910;6.792;2023-02-05T08:11:54;23.70;;;14.23;;
26806;SDS011;14380;49.910;6.792;2023-02-05T08:14:21;22.23;;;14.35;;
26806;SDS011;14380;49.910;6.792;2023-02-05T08:16:47;21.88;;;14.57;;
26806;SDS011;14380;49.910;6.792;2023-02-05T08:19:15;25.50;;;14.35;;
26806;SDS011;14380;49.910;6.792;2023-02-05T08:21:42;20.25;;;14.23;;
26806;SDS011;14380;49.910;6.792;2023-02-05T08:24:09;23.70;;;15.15;;
26806;SDS011;14380;49.910;6.792;2023-02-05T08:26:36;21.75;;;14.80;;
26806;SDS011;14380;49.910;6.792;2023-02-05T08:29:03;19.67;;;13.07;;
26806;SDS011;14380;49.910;6.792;2023-02-05T08:31:32;18.00;;;12.20;;
26806;SDS011;14380;49.910;6.792;2023-02-05T08:33:59;19.30;;;13.57;;
26806;SDS011;14380;49.910;6.792;2023-02-05T08:36:27;19.50;;;12.88;;
26806;SDS011;14380;49.910;6.792;2023-02-05T08:38:54;19.83;;;13.18;;
26806;SDS011;14380;49.910;6.792;2023-02-05T08:41:20;19.88;;;13.18;;
26806;SDS011;14380;49.910;6.792;2023-02-05T08:43:48;23.23;;;14.55;;
26806;SDS011;14380;49.910;6.792;2023-02-05T08:46:16;19.45;;;13.82;;
26806;SDS011;14380;49.910;6.792;2023-02-05T08:48:44;19.33;;;13.20;;
26806;SDS011;14380;49.910;6.792;2023-02-05T08:51:11;23.00;;;14.40;;
26806;SDS011;14380;49.910;6.792;2023-02-05T08:53:40;21.30;;;13.50;;
26806;SDS011;14380;49.910;6.792;2023-02-05T08:56:08;20.30;;;14.02;;
26806;SDS011;14380;49.910;6.792;2023-02-05T08:58:36;21.08;;;14.48;;
26806;SDS011;14380;49.910;6.792;2023-02-05T09:01:04;22.52;;;14.27;;
26806;SDS011;14380;49.910;6.792;2023-02-05T09:03:32;22.60;;;15.07;;
26806;SDS011;14380;49.910;6.792;2023-02-05T09:05:59;22.60;;;16.20;;
26806;SDS011;14380;49.910;6.792;2023-02-05T09:08:29;21.35;;;15.18;;
26806;SDS011;14380;49.910;6.792;2023-02-05T09:10:57;22.92;;;15.30;;
26806;SDS011;14380;49.910;6.792;2023-02-05T09:13:24;22.60;;;14.68;;
26806;SDS011;14380;49.910;6.792;2023-02-05T09:15:51;25.95;;;16.15;;
26806;SDS011;14380;49.910;6.792;2023-02-05T09:18:17;24.05;;;15.70;;
26806;SDS011;14380;49.910;6.792;2023-02-05T09:20:45;23.90;;;16.35;;
26806;SDS011;14380;49.910;6.792;2023-02-05T09:23:15;19.40;;;13.98;;
26806;SDS011;14380;49.910;6.792;2023-02-05T09:25:42;24.13;;;14.85;;
26806;SDS011;14380;49.910;6.792;2023-02-05T09:28:11;24.70;;;14.45;;
26806;SDS011;14380;49.910;6.792;2023-02-05T09:30:39;20.63;;;12.63;;
26806;SDS011;14380;49.910;6.792;2023-02-05T09:33:09;17.88;;;12.55;;
26806;SDS011;14380;49.910;6.792;2023-02-05T09:35:36;21.35;;;12.65;;
26806;SDS011;14380;49.910;6.792;2023-02-05T09:38:03;19.88;;;12.65;;
26806;SDS011;14380;49.910;6.792;2023-02-05T09:40:31;17.30;;;13.27;;
26806;SDS011;14380;49.910;6.792;2023-02-05T09:43:03;16.10;;;11.65;;
26806;SDS011;14380;49.910;6.792;2023-02-05T09:45:41;20.38;;;12.45;;
26806;SDS011;14380;49.910;6.792;2023-02-05T09:48:25;17.02;;;11.70;;
26806;SDS011;14380;49.910;6.792;2023-02-05T09:51:10;18.67;;;11.73;;
26806;SDS011;14380;49.910;6.792;2023-02-05T09:53:38;20.73;;;12.52;;
26806;SDS011;14380;49.910;6.792;2023-02-05T09:56:09;18.42;;;12.15;;
26806;SDS011;14380;49.910;6.792;2023-02-05T09:58:39;17.00;;;11.38;;
26806;SDS011;14380;49.910;6.792;2023-02-05T10:01:13;20.65;;;11.68;;
26806;SDS011;14380;49.910;6.792;2023-02-05T10:03:47;15.30;;;11.15;;
26806;SDS011;14380;49.910;6.792;2023-02-05T10:06:30;14.00;;;10.20;;
26806;SDS011;14380;49.910;6.792;2023-02-05T10:12:21;12.52;;;7.38;;
26806;SDS011;14380;49.910;6.792;2023-02-05T10:15:02;10.07;;;6.97;;
26806;SDS011;14380;49.910;6.792;2023-02-05T10:17:41;9.77;;;6.65;;
26806;SDS011;14380;49.910;6.792;2023-02-05T10:20:19;8.82;;;6.43;;
26806;SDS011;14380;49.910;6.792;2023-02-05T10:22:56;11.60;;;6.22;;
26806;SDS011;14380;49.910;6.792;2023-02-05T10:25:38;9.82;;;6.25;;
26806;SDS011;14380;49.910;6.792;2023-02-05T10:28:27;7.65;;;5.70;;
26806;SDS011;14380;49.910;6.792;2023-02-05T10:31:11;8.00;;;5.47;;
26806;SDS011;14380;49.910;6.792;2023-02-05T10:33:47;7.70;;;5.07;;
26806;SDS011;14380;49.910;6.792;2023-02-05T10:36:21;7.18;;;5.00;;
26806;SDS011;14380;49.910;6.792;2023-02-05T10:38:50;6.13;;;3.97;;
26806;SDS011;14380;49.910;6.792;2023-02-05T10:41:21;6.60;;;4.10;;
26806;SDS011;14380;49.910;6.792;2023-02-05T10:43:52;4.15;;;3.00;;
26806;SDS011;14380;49.910;6.792;2023-02-05T10:46:25;2.88;;;2.53;;
26806;SDS011;14380;49.910;6.792;2023-02-05T10:49:00;4.20;;;2.33;;
26806;SDS011;14380;49.910;6.792;2023-02-05T10:51:34;2.25;;;1.33;;
26806;SDS011;14380;49.910;6.792;2023-02-05T10:54:05;1.48;;;0.85;;
26806;SDS011;14380;49.910;6.792;2023-02-05T10:56:42;1.00;;;0.90;;
26806;SDS011;14380;49.910;6.792;2023-02-05T10:59:09;0.85;;;0.60;;
26806;SDS011;14380;49.910;6.792;2023-02-05T11:01:45;0.80;;;0.50;;
26806;SDS011;14380;49.910;6.792;2023-02-05T11:04:15;1.08;;;0.60;;
26806;SDS011;14380;49.910;6.792;2023-02-05T11:06:46;1.17;;;0.50;;
26806;SDS011;14380;49.910;6.792;2023-02-05T11:09:26;0.95;;;0.40;;
26806;SDS011;14380;49.910;6.792;2023-02-05T11:11:57;0.45;;;0.30;;
26806;SDS011;14380;49.910;6.792;2023-02-05T11:14:26;0.65;;;0.20;;
26806;SDS011;14380;49.910;6.792;2023-02-05T11:17:05;1.27;;;0.40;;
26806;SDS011;14380;49.910;6.792;2023-02-05T11:19:36;0.38;;;0.30;;
26806;SDS011;14380;49.910;6.792;2023-02-05T11:22:03;0.95;;;0.38;;
26806;SDS011;14380;49.910;6.792;2023-02-05T11:24:31;0.47;;;0.30;;
26806;SDS011;14380;49.910;6.792;2023-02-05T11:27:22;2.00;;;0.70;;
26806;SDS011;14380;49.910;6.792;2023-02-05T11:29:51;0.28;;;0.28;;
26806;SDS011;14380;49.910;6.792;2023-02-05T11:32:19;0.45;;;0.30;;
26806;SDS011;14380;49.910;6.792;2023-02-05T11:34:47;0.82;;;0.20;;
26806;SDS011;14380;49.910;6.792;2023-02-05T11:37:14;0.60;;;0.20;;
26806;SDS011;14380;49.910;6.792;2023-02-05T11:39:43;0.43;;;0.22;;
26806;SDS011;14380;49.910;6.792;2023-02-05T11:42:15;0.40;;;0.40;;
26806;SDS011;14380;49.910;6.792;2023-02-05T11:44:46;0.55;;;0.30;;
26806;SDS011;14380;49.910;6.792;2023-02-05T11:47:17;0.52;;;0.45;;
26806;SDS011;14380;49.910;6.792;2023-02-05T11:49:50;0.20;;;0.20;;
26806;SDS011;14380;49.910;6.792;2023-02-05T11:52:21;0.88;;;0.40;;
26806;SDS011;14380;49.910;6.792;2023-02-05T11:54:52;0.52;;;0.40;;
26806;SDS011;14380;49.910;6.792;2023-02-05T11:57:26;1.90;;;0.30;;
26806;SDS011;14380;49.910;6.792;2023-02-05T11:59:57;1.15;;;0.47;;
26806;SDS011;14380;49.910;6.792;2023-02-05T12:02:32;0.75;;;0.20;;
26806;SDS011;14380;49.910;6.792;2023-02-05T12:05:01;0.28;;;0.20;;
26806;SDS011;14380;49.910;6.792;2023-02-05T12:07:34;0.28;;;0.20;;
26806;SDS011;14380;49.910;6.792;2023-02-05T12:10:05;0.20;;;0.20;;
26806;SDS011;14380;49.910;6.792;2023-02-05T12:12:41;0.35;;;0.20;;
26806;SDS011;14380;49.910;6.792;2023-02-05T12:15:17;0.75;;;0.20;;
26806;SDS011;14380;49.910;6.792;2023-02-05T12:17:50;1.35;;;0.20;;
26806;SDS011;14380;49.910;6.792;2023-02-05T12:20:26;0.88;;;0.30;;
26806;SDS011;14380;49.910;6.792;2023-02-05T12:23:03;1.10;;;0.20;;
26806;SDS011;14380;49.910;6.792;2023-02-05T12:25:44;0.95;;;0.20;;
26806;SDS011;14380;49.910;6.792;2023-02-05T12:28:21;0.10;;;0.10;;
26806;SDS011;14380;49.910;6.792;2023-02-05T12:30:59;0.20;;;0.20;;
26806;SDS011;14380;49.910;6.792;2023-02-05T12:33:40;0.88;;;0.20;;
26806;SDS011;14380;49.910;6.792;2023-02-05T12:36:22;0.93;;;0.30;;
26806;SDS011;14380;49.910;6.792;2023-02-05T12:39:01;0.32;;;0.20;;
26806;SDS011;14380;49.910;6.792;2023-02-05T12:41:38;0.20;;;0.20;;
26806;SDS011;14380;49.910;6.792;2023-02-05T12:44:16;1.42;;;0.20;;
26806;SDS011;14380;49.910;6.792;2023-02-05T12:46:56;0.98;;;0.20;;
26806;SDS011;14380;49.910;6.792;2023-02-05T12:49:38;0.47;;;0.20;;
26806;SDS011;14380;49.910;6.792;2023-02-05T12:52:27;0.75;;;0.20;;
26806;SDS011;14380;49.910;6.792;2023-02-05T12:55:10;1.35;;;0.35;;
26806;SDS011;14380;49.910;6.792;2023-02-05T12:57:50;0.30;;;0.28;;
26806;SDS011;14380;49.910;6.792;2023-02-05T13:00:20;0.80;;;0.38;;
26806;SDS011;14380;49.910;6.792;2023-02-05T13:02:52;0.57;;;0.10;;
26806;SDS011;14380;49.910;6.792;2023-02-05T13:05:24;2.15;;;1.10;;
26806;SDS011;14380;49.910;6.792;2023-02-05T13:08:00;0.73;;;0.30;;
26806;SDS011;14380;49.910;6.792;2023-02-05T13:10:33;0.20;;;0.20;;
26806;SDS011;14380;49.910;6.792;2023-02-05T13:13:10;0.65;;;0.30;;
26806;SDS011;14380;49.910;6.792;2023-02-05T13:15:42;1.45;;;0.43;;
26806;SDS011;14380;49.910;6.792;2023-02-05T13:18:13;0.35;;;0.10;;
26806;SDS011;14380;49.910;6.792;2023-02-05T13:20:44;0.22;;;0.17;;
26806;SDS011;14380;49.910;6.792;2023-02-05T13:23:42;2.67;;;0.60;;
26806;SDS011;14380;49.910;6.792;2023-02-05T13:26:29;0.32;;;0.28;;
26806;SDS011;14380;49.910;6.792;2023-02-05T13:29:16;1.17;;;0.30;;
26806;SDS011;14380;49.910;6.792;2023-02-05T13:31:45;0.40;;;0.20;;
26806;SDS011;14380;49.910;6.792;2023-02-05T13:34:15;1.70;;;0.50;;
26806;SDS011;14380;49.910;6.792;2023-02-05T13:42:55;0.77;;;0.35;;
26806;SDS011;14380;49.910;6.792;2023-02-05T13:45:50;0.30;;;0.30;;
26806;SDS011;14380;49.910;6.792;2023-02-05T13:48:55;1.25;;;0.40;;
26806;SDS011;14380;49.910;6.792;2023-02-05T13:51:44;0.30;;;0.30;;
26806;SDS011;14380;49.910;6.792;2023-02-05T13:57:31;1.50;;;0.32;;
26806;SDS011;14380;49.910;6.792;2023-02-05T14:00:26;0.50;;;0.30;;
26806;SDS011;14380;49.910;6.792;2023-02-05T14:02:54;2.00;;;0.50;;
26806;SDS011;14380;49.910;6.792;2023-02-05T14:05:29;1.33;;;0.50;;
26806;SDS011;14380;49.910;6.792;2023-02-05T14:07:58;0.47;;;0.40;;
26806;SDS011;14380;49.910;6.792;2023-02-05T14:10:27;1.83;;;0.50;;
26806;SDS011;14380;49.910;6.792;2023-02-05T14:15:44;2.08;;;0.52;;
26806;SDS011;14380;49.910;6.792;2023-02-05T14:18:12;2.67;;;0.57;;
26806;SDS011;14380;49.910;6.792;2023-02-05T14:24:37;3.28;;;0.47;;
26806;SDS011;14380;49.910;6.792;2023-02-05T14:33:32;3.38;;;0.68;;
26806;SDS011;14380;49.910;6.792;2023-02-05T14:39:05;1.13;;;0.35;;
26806;SDS011;14380;49.910;6.792;2023-02-05T14:41:45;3.30;;;0.93;;
26806;SDS011;14380;49.910;6.792;2023-02-05T14:44:16;10.38;;;3.72;;
26806;SDS011;14380;49.910;6.792;2023-02-05T14:46:54;6.15;;;2.58;;
26806;SDS011;14380;49.910;6.792;2023-02-05T14:49:33;2.33;;;1.30;;
26806;SDS011;14380;49.910;6.792;2023-02-05T14:52:05;5.38;;;2.42;;
26806;SDS011;14380;49.910;6.792;2023-02-05T14:54:42;11.02;;;5.10;;
26806;SDS011;14380;49.910;6.792;2023-02-05T14:57:16;5.68;;;2.40;;
26806;SDS011;14380;49.910;6.792;2023-02-05T14:59:49;4.90;;;1.90;;
26806;SDS011;14380;49.910;6.792;2023-02-05T15:05:26;3.28;;;1.30;;
26806;SDS011;14380;49.910;6.792;2023-02-05T15:08:01;4.60;;;1.10;;
26806;SDS011;14380;49.910;6.792;2023-02-05T15:10:35;2.50;;;0.70;;
26806;SDS011;14380;49.910;6.792;2023-02-05T15:13:09;3.10;;;0.70;;
26806;SDS011;14380;49.910;6.792;2023-02-05T15:15:37;2.05;;;1.02;;
26806;SDS011;14380;49.910;6.792;2023-02-05T15:18:08;4.05;;;0.82;;
26806;SDS011;14380;49.910;6.792;2023-02-05T15:20:41;4.82;;;0.95;;
26806;SDS011;14380;49.910;6.792;2023-02-05T15:23:17;3.80;;;0.80;;
26806;SDS011;14380;49.910;6.792;2023-02-05T15:25:52;2.65;;;0.80;;
26806;SDS011;14380;49.910;6.792;2023-02-05T15:28:27;1.60;;;0.52;;